createdAt,value
2023-10-15T00:02:00.125Z,8.82
2023-10-15T00:04:47.752Z,8.80
2023-10-15T00:07:35.086Z,8.80
2023-10-15T00:10:25.693Z,8.79
2023-10-15T00:13:12.870Z,8.76
2023-10-15T00:16:00.002Z,8.71
2023-10-15T00:18:47.783Z,8.63
2023-10-15T00:21:35.333Z,8.59
2023-10-15T00:24:22.556Z,8.55
2023-10-15T00:27:09.957Z,8.52
2023-10-15T00:29:57.161Z,8.46
2023-10-15T00:32:44.497Z,8.40
2023-10-15T00:35:36.348Z,8.36
2023-10-15T00:38:25.132Z,8.29
2023-10-15T00:41:14.412Z,8.22
2023-10-15T00:44:02.371Z,8.17
2023-10-15T00:46:56.413Z,8.11
2023-10-15T00:49:44.462Z,8.06
2023-10-15T00:52:31.696Z,8.07
2023-10-15T00:55:20.163Z,8.05
2023-10-15T00:58:09.452Z,8.04
2023-10-15T01:05:53.919Z,7.97
2023-10-15T01:08:41.878Z,7.96
2023-10-15T01:11:30.648Z,7.94
2023-10-15T01:14:39.471Z,7.92
2023-10-15T01:17:38.188Z,7.90
2023-10-15T01:20:30.897Z,7.84
2023-10-15T01:23:45.002Z,7.78
2023-10-15T01:26:39.490Z,7.73
2023-10-15T01:29:28.028Z,7.70
2023-10-15T01:32:22.389Z,7.68
2023-10-15T01:35:11.293Z,7.66
2023-10-15T01:38:00.165Z,7.61
2023-10-15T01:40:52.709Z,7.57
2023-10-15T01:43:42.772Z,7.53
2023-10-15T01:46:59.496Z,7.51
2023-10-15T01:49:47.288Z,7.49
2023-10-15T01:52:41.881Z,7.48
2023-10-15T01:55:30.016Z,7.49
2023-10-15T01:58:17.568Z,7.48
2023-10-15T02:01:22.007Z,7.44
2023-10-15T02:04:35.412Z,7.36
2023-10-15T02:07:22.765Z,7.24
2023-10-15T02:10:13.596Z,7.15
2023-10-15T02:13:04.609Z,7.12
2023-10-15T02:15:56.480Z,7.09
2023-10-15T02:18:45.511Z,7.08
2023-10-15T02:21:33.569Z,7.09
2023-10-15T02:24:20.722Z,7.09
2023-10-15T02:27:09.549Z,7.08
2023-10-15T02:29:56.799Z,7.06
2023-10-15T02:32:45.627Z,7.02
2023-10-15T02:35:40.003Z,6.95
2023-10-15T02:38:34.491Z,6.88
2023-10-15T02:41:31.465Z,6.84
2023-10-15T02:44:18.661Z,6.80
2023-10-15T02:47:20.313Z,6.77
2023-10-15T02:50:10.668Z,6.75
2023-10-15T02:53:00.747Z,6.72
2023-10-15T02:55:48.153Z,6.70
2023-10-15T02:58:35.407Z,6.69
2023-10-15T03:01:24.537Z,6.68
2023-10-15T03:04:12.189Z,6.66
2023-10-15T03:07:18.666Z,6.65
2023-10-15T03:10:06.149Z,6.59
2023-10-15T03:12:53.282Z,6.54
2023-10-15T03:15:49.410Z,6.52
2023-10-15T03:18:36.623Z,6.49
2023-10-15T03:21:27.421Z,6.43
2023-10-15T03:24:15.081Z,6.39
2023-10-15T03:27:05.991Z,6.39
2023-10-15T03:29:56.902Z,6.37
2023-10-15T03:32:47.228Z,6.39
2023-10-15T03:35:38.612Z,6.39
2023-10-15T03:38:32.879Z,6.36
2023-10-15T03:41:22.219Z,6.29
2023-10-15T03:44:11.705Z,6.26
2023-10-15T03:47:05.126Z,6.22
2023-10-15T03:49:52.952Z,6.17
2023-10-15T03:52:40.270Z,6.15
2023-10-15T03:55:30.971Z,6.12
2023-10-15T03:58:19.091Z,6.08
2023-10-15T04:01:26.651Z,6.03
2023-10-15T04:04:17.020Z,5.98
2023-10-15T04:07:19.959Z,5.94
2023-10-15T04:10:08.693Z,5.91
2023-10-15T04:12:56.773Z,5.84
2023-10-15T04:15:43.919Z,5.82
2023-10-15T04:18:31.327Z,5.79
2023-10-15T04:21:20.568Z,5.76
2023-10-15T04:24:08.154Z,5.73
2023-10-15T04:26:55.346Z,5.72
2023-10-15T04:29:56.241Z,5.68
2023-10-15T04:32:43.573Z,5.65
2023-10-15T04:35:33.083Z,5.66
2023-10-15T04:38:23.288Z,5.66
2023-10-15T04:41:21.897Z,5.66
2023-10-15T04:44:12.544Z,5.62
2023-10-15T04:47:05.789Z,5.60
2023-10-15T04:49:57.374Z,5.55
2023-10-15T04:52:44.627Z,5.54
2023-10-15T04:55:31.872Z,5.53
2023-10-15T04:58:19.087Z,5.52
2023-10-15T05:01:07.918Z,5.51
2023-10-15T05:03:55.164Z,5.49
2023-10-15T05:06:42.488Z,5.46
2023-10-15T05:09:31.673Z,5.42
2023-10-15T05:12:20.967Z,5.41
2023-10-15T05:15:13.712Z,5.40
2023-10-15T05:18:00.941Z,5.39
2023-10-15T05:20:49.491Z,5.40
2023-10-15T05:23:38.331Z,5.41
2023-10-15T05:26:26.195Z,5.40
2023-10-15T05:29:15.611Z,5.43
2023-10-15T05:32:02.901Z,5.46
2023-10-15T05:34:50.514Z,5.51
2023-10-15T05:37:40.337Z,5.55
2023-10-15T05:40:27.525Z,5.62
2023-10-15T05:43:14.731Z,5.70
2023-10-15T05:46:01.848Z,5.77
2023-10-15T05:48:49.221Z,5.84
2023-10-15T05:51:36.422Z,5.89
2023-10-15T05:54:23.712Z,5.95
2023-10-15T05:57:11.016Z,6.05
2023-10-15T05:59:58.214Z,6.15
2023-10-15T06:02:46.834Z,6.29
2023-10-15T06:05:34.183Z,6.37
2023-10-15T06:08:21.400Z,6.47
2023-10-15T06:11:08.502Z,6.57
2023-10-15T06:13:57.057Z,6.67
2023-10-15T06:16:45.255Z,6.74
2023-10-15T06:19:32.607Z,6.79
2023-10-15T06:22:20.148Z,6.84
2023-10-15T06:25:12.607Z,6.90
2023-10-15T06:28:02.031Z,6.96
2023-10-15T06:30:49.215Z,7.00
2023-10-15T06:33:40.660Z,7.05
2023-10-15T06:36:27.828Z,7.12
2023-10-15T06:39:15.021Z,7.19
2023-10-15T06:42:02.248Z,7.28
2023-10-15T06:44:49.461Z,7.36
2023-10-15T06:47:38.029Z,7.44
2023-10-15T06:50:26.927Z,7.52
2023-10-15T06:53:15.487Z,7.58
2023-10-15T06:56:07.237Z,7.64
2023-10-15T06:58:55.291Z,7.73
2023-10-15T07:01:43.366Z,7.70
2023-10-15T07:04:30.642Z,7.72
2023-10-15T07:07:18.036Z,7.78
2023-10-15T07:10:05.825Z,7.83
2023-10-15T07:12:53.080Z,7.94
2023-10-15T07:15:41.124Z,8.04
2023-10-15T07:18:28.528Z,8.14
2023-10-15T07:21:15.834Z,8.27
2023-10-15T07:24:06.066Z,8.37
2023-10-15T07:26:53.305Z,8.48
2023-10-15T07:29:40.643Z,8.58
2023-10-15T07:32:27.971Z,8.61
2023-10-15T07:35:16.432Z,8.62
2023-10-15T07:38:04.839Z,8.67
2023-10-15T07:40:57.520Z,8.73
2023-10-15T07:43:46.087Z,8.77
2023-10-15T07:46:34.058Z,8.80
2023-10-15T07:49:21.505Z,8.77
2023-10-15T07:52:08.724Z,8.70
2023-10-15T07:54:55.981Z,8.66
2023-10-15T07:57:43.544Z,8.69
2023-10-15T08:00:31.571Z,8.70
2023-10-15T08:03:19.613Z,8.72
2023-10-15T08:06:08.202Z,8.73
2023-10-15T08:08:55.490Z,8.83
2023-10-15T08:11:42.746Z,8.98
2023-10-15T08:14:30.153Z,9.01
2023-10-15T08:17:17.378Z,9.03
2023-10-15T08:20:08.140Z,9.09
2023-10-15T08:22:55.843Z,9.24
2023-10-15T08:25:43.169Z,9.39
2023-10-15T08:28:30.356Z,9.50
2023-10-15T08:31:17.541Z,9.63
2023-10-15T08:34:04.837Z,9.61
2023-10-15T08:36:52.106Z,9.69
2023-10-15T08:39:39.884Z,9.74
2023-10-15T08:42:31.387Z,9.72
2023-10-15T08:45:22.462Z,9.61
2023-10-15T08:48:13.091Z,9.57
2023-10-15T08:51:02.495Z,9.59
2023-10-15T08:53:50.791Z,9.57
2023-10-15T08:56:39.344Z,9.51
2023-10-15T08:59:32.045Z,9.41
2023-10-15T09:02:20.232Z,9.40
2023-10-15T09:05:08.920Z,9.40
2023-10-15T09:07:56.446Z,9.43
2023-10-15T09:10:44.217Z,9.60
2023-10-15T09:13:37.039Z,9.85
2023-10-15T09:16:26.892Z,9.90
2023-10-15T09:19:18.054Z,9.88
2023-10-15T09:22:15.005Z,9.84
2023-10-15T09:25:05.356Z,9.83
2023-10-15T09:27:56.950Z,9.96
2023-10-15T09:30:46.824Z,9.97
2023-10-15T09:33:34.910Z,9.97
2023-10-15T09:36:23.267Z,9.92
2023-10-15T09:39:13.560Z,9.79
2023-10-15T09:42:03.263Z,9.62
2023-10-15T09:44:50.509Z,9.58
2023-10-15T09:47:40.109Z,9.55
2023-10-15T09:50:28.886Z,9.58
2023-10-15T09:53:17.438Z,9.64
2023-10-15T09:56:09.673Z,9.69
2023-10-15T09:58:57.186Z,9.67
2023-10-15T10:01:54.512Z,9.67
2023-10-15T10:05:00.587Z,9.58
2023-10-15T10:08:08.925Z,9.50
2023-10-15T10:11:26.328Z,9.45
2023-10-15T10:14:30.788Z,9.47
2023-10-15T10:17:22.262Z,9.57
2023-10-15T10:20:13.954Z,9.62
2023-10-15T10:23:08.070Z,9.60
2023-10-15T10:25:59.034Z,9.62
2023-10-15T10:28:49.243Z,9.71
2023-10-15T10:31:41.221Z,9.75
2023-10-15T10:34:33.462Z,9.79
2023-10-15T10:37:23.998Z,9.84
2023-10-15T10:40:48.029Z,9.88
2023-10-15T10:43:38.777Z,9.84
2023-10-15T10:46:26.178Z,9.81
2023-10-15T10:49:17.155Z,9.79
2023-10-15T10:52:16.370Z,9.81
2023-10-15T10:55:34.778Z,9.81
2023-10-15T10:58:25.322Z,9.79
2023-10-15T11:01:14.542Z,9.70
2023-10-15T11:04:13.988Z,9.67
2023-10-15T11:07:01.329Z,9.78
2023-10-15T11:09:50.509Z,9.85
2023-10-15T11:12:40.237Z,9.94
2023-10-15T11:15:27.799Z,9.96
2023-10-15T11:18:21.029Z,9.88
2023-10-15T11:21:09.796Z,9.84
2023-10-15T11:23:57.584Z,9.81
2023-10-15T11:26:45.886Z,9.77
2023-10-15T11:29:33.897Z,9.70
2023-10-15T11:32:22.240Z,9.61
2023-10-15T11:35:15.663Z,9.66
2023-10-15T11:38:09.728Z,9.70
2023-10-15T11:40:57.054Z,9.82
2023-10-15T11:43:44.426Z,9.94
2023-10-15T11:46:33.357Z,10.03
2023-10-15T11:49:23.347Z,10.12
2023-10-15T11:52:15.377Z,10.12
2023-10-15T11:55:05.148Z,10.19
2023-10-15T11:57:54.379Z,10.32
2023-10-15T12:00:42.528Z,10.48
2023-10-15T12:03:29.835Z,10.55
2023-10-15T12:06:17.179Z,10.55
2023-10-15T12:09:06.935Z,10.47
2023-10-15T12:11:54.241Z,10.34
2023-10-15T12:14:41.685Z,10.24
2023-10-15T12:17:29.020Z,10.19
2023-10-15T12:20:20.263Z,10.16
2023-10-15T12:23:08.347Z,10.09
2023-10-15T12:25:55.546Z,10.02
2023-10-15T12:28:47.580Z,9.94
2023-10-15T12:31:38.545Z,9.91
2023-10-15T12:34:25.998Z,9.95
2023-10-15T12:37:14.044Z,9.97
2023-10-15T12:40:01.261Z,10.05
2023-10-15T12:42:48.554Z,10.16
2023-10-15T12:45:36.612Z,10.27
2023-10-15T12:48:23.964Z,10.40
2023-10-15T12:51:12.307Z,10.42
2023-10-15T12:54:00.123Z,10.51
2023-10-15T12:56:47.922Z,10.59
2023-10-15T12:59:37.383Z,10.65
2023-10-15T13:02:24.939Z,10.62
2023-10-15T13:05:15.149Z,10.52
2023-10-15T13:08:03.850Z,10.51
2023-10-15T13:10:51.690Z,10.59
2023-10-15T13:13:38.940Z,10.62
2023-10-15T13:16:26.260Z,10.57
2023-10-15T13:19:13.954Z,10.48
2023-10-15T13:22:05.094Z,10.30
2023-10-15T13:24:52.162Z,10.23
2023-10-15T13:27:39.578Z,10.26
2023-10-15T13:30:27.509Z,10.37
2023-10-15T13:33:14.719Z,10.44
2023-10-15T13:36:02.025Z,10.43
2023-10-15T13:38:49.382Z,10.39
2023-10-15T13:41:36.640Z,10.32
2023-10-15T13:44:24.242Z,10.24
2023-10-15T13:47:11.712Z,10.18
2023-10-15T13:49:59.016Z,10.12
2023-10-15T13:52:47.167Z,10.08
2023-10-15T13:55:34.423Z,10.03
2023-10-15T13:58:21.843Z,9.98
2023-10-15T14:01:10.918Z,10.03
2023-10-15T14:03:58.478Z,10.12
2023-10-15T14:06:45.833Z,10.17
2023-10-15T14:09:38.205Z,10.17
2023-10-15T14:12:25.647Z,10.10
2023-10-15T14:15:17.159Z,10.07
2023-10-15T14:18:05.853Z,10.05
2023-10-15T14:20:53.295Z,10.05
2023-10-15T14:23:40.555Z,10.05
2023-10-15T14:26:27.795Z,10.06
2023-10-15T14:29:16.156Z,10.07
2023-10-15T14:32:03.508Z,10.12
2023-10-15T14:34:50.813Z,10.15
2023-10-15T14:37:41.226Z,10.17
2023-10-15T14:40:28.550Z,10.16
2023-10-15T14:43:15.871Z,10.10
2023-10-15T14:46:05.158Z,9.97
2023-10-15T14:48:53.095Z,9.84
2023-10-15T14:51:40.254Z,9.73
2023-10-15T14:54:27.751Z,9.62
2023-10-15T14:57:18.280Z,9.54
2023-10-15T15:00:08.884Z,9.50
2023-10-15T15:02:56.317Z,9.46
2023-10-15T15:05:43.661Z,9.45
2023-10-15T15:08:30.895Z,9.40
2023-10-15T15:11:18.203Z,9.36
2023-10-15T15:14:08.941Z,9.36
2023-10-15T15:16:56.200Z,9.36
2023-10-15T15:19:46.881Z,9.32
2023-10-15T15:22:35.421Z,9.23
2023-10-15T15:25:26.481Z,9.15
2023-10-15T15:28:13.665Z,9.11
2023-10-15T15:31:01.179Z,9.08
2023-10-15T15:33:48.472Z,9.05
2023-10-15T15:36:35.720Z,9.03
2023-10-15T15:39:22.919Z,8.98
2023-10-15T15:42:10.089Z,8.92
2023-10-15T15:44:57.395Z,8.89
2023-10-15T15:47:44.876Z,8.85
2023-10-15T15:50:32.079Z,8.81
2023-10-15T15:53:23.137Z,8.74
2023-10-15T15:56:10.864Z,8.62
2023-10-15T15:58:58.134Z,8.57
2023-10-15T16:01:46.029Z,8.51
2023-10-15T16:04:33.663Z,8.42
2023-10-15T16:07:22.529Z,8.37
2023-10-15T16:10:11.350Z,8.34
2023-10-15T16:12:59.147Z,8.32
2023-10-15T16:15:46.401Z,8.30
2023-10-15T16:18:33.578Z,8.27
2023-10-15T16:21:20.748Z,8.23
2023-10-15T16:24:10.807Z,8.17
2023-10-15T16:26:59.521Z,8.11
2023-10-15T16:29:46.871Z,8.08
2023-10-15T16:32:34.274Z,8.03
2023-10-15T16:35:21.643Z,7.95
2023-10-15T16:38:09.043Z,7.85
2023-10-15T16:40:56.315Z,7.73
2023-10-15T16:43:43.526Z,7.63
2023-10-15T16:46:31.336Z,7.53
2023-10-15T16:49:18.597Z,7.44
2023-10-15T16:52:08.731Z,7.36
2023-10-15T16:54:56.050Z,7.30
2023-10-15T16:57:43.326Z,7.22
2023-10-15T17:00:31.104Z,7.13
2023-10-15T17:03:18.546Z,7.06
2023-10-15T17:06:05.988Z,6.97
2023-10-15T17:08:53.279Z,6.84
2023-10-15T17:11:40.620Z,6.75
2023-10-15T17:14:29.270Z,6.67
2023-10-15T17:17:17.708Z,6.63
2023-10-15T17:20:06.249Z,6.58
2023-10-15T17:22:54.306Z,6.51
2023-10-15T17:25:42.271Z,6.44
2023-10-15T17:28:32.383Z,6.40
2023-10-15T17:31:20.048Z,6.38
2023-10-15T17:34:07.466Z,6.32
2023-10-15T17:37:03.682Z,6.25
2023-10-15T17:39:55.305Z,6.20
2023-10-15T17:42:42.819Z,6.22
2023-10-15T17:45:30.705Z,6.21
2023-10-15T17:48:18.950Z,6.17
2023-10-15T17:51:06.553Z,6.16
2023-10-15T17:53:53.955Z,6.16
2023-10-15T17:56:44.084Z,6.17
2023-10-15T17:59:31.533Z,6.14
2023-10-15T18:02:21.327Z,6.10
2023-10-15T18:05:08.985Z,6.07
2023-10-15T18:07:56.175Z,6.02
2023-10-15T18:10:44.218Z,5.96
2023-10-15T18:13:32.513Z,5.93
2023-10-15T18:16:20.873Z,5.92
2023-10-15T18:19:09.437Z,5.92
2023-10-15T18:21:56.794Z,5.91
2023-10-15T18:24:44.293Z,5.90
2023-10-15T18:27:31.765Z,5.89
2023-10-15T18:30:19.059Z,5.85
2023-10-15T18:33:06.562Z,5.82
2023-10-15T18:35:53.854Z,5.74
2023-10-15T18:38:41.125Z,5.65
2023-10-15T18:41:28.474Z,5.59
2023-10-15T18:44:20.024Z,5.54
2023-10-15T18:47:07.786Z,5.53
2023-10-15T18:49:55.161Z,5.54
2023-10-15T18:52:42.783Z,5.56
2023-10-15T18:55:30.079Z,5.56
2023-10-15T18:58:17.282Z,5.53
2023-10-15T19:01:04.947Z,5.52
2023-10-15T19:03:52.395Z,5.47
2023-10-15T19:06:39.849Z,5.41
2023-10-15T19:09:27.198Z,5.34
2023-10-15T19:12:14.738Z,5.27
2023-10-15T19:15:02.669Z,5.21
2023-10-15T19:17:50.231Z,5.16
2023-10-15T19:20:42.380Z,5.12
2023-10-15T19:23:30.232Z,5.09
2023-10-15T19:26:20.482Z,5.05
2023-10-15T19:29:09.828Z,5.01
2023-10-15T19:31:57.004Z,4.99
2023-10-15T19:34:44.334Z,4.98
2023-10-15T19:37:31.566Z,4.99
2023-10-15T19:40:18.874Z,4.96
2023-10-15T19:43:06.080Z,4.94
2023-10-15T19:45:53.405Z,4.93
2023-10-15T19:48:40.805Z,4.91
2023-10-15T19:51:28.142Z,4.91
2023-10-15T19:54:15.373Z,4.91
2023-10-15T19:57:04.016Z,4.90
2023-10-15T19:59:51.561Z,4.86
2023-10-15T20:02:41.212Z,4.83
2023-10-15T20:05:28.757Z,4.81
2023-10-15T20:08:16.118Z,4.80
2023-10-15T20:11:04.166Z,4.80
2023-10-15T20:13:54.478Z,4.80
2023-10-15T20:16:41.681Z,4.80
2023-10-15T20:19:28.997Z,4.76
2023-10-15T20:22:17.472Z,4.68
2023-10-15T20:25:08.570Z,4.66
2023-10-15T20:28:02.397Z,4.61
2023-10-15T20:30:52.311Z,4.58
2023-10-15T20:33:39.713Z,4.53
2023-10-15T20:36:27.133Z,4.53
2023-10-15T20:39:19.291Z,4.54
2023-10-15T20:42:06.666Z,4.53
2023-10-15T20:44:54.939Z,4.53
2023-10-15T20:47:48.944Z,4.53
2023-10-15T20:50:36.325Z,4.53
2023-10-15T20:53:23.801Z,4.52
2023-10-15T20:56:10.934Z,4.51
2023-10-15T20:58:58.088Z,4.50
2023-10-15T21:01:45.358Z,4.46
2023-10-15T21:04:32.668Z,4.42
2023-10-15T21:07:19.858Z,4.39
2023-10-15T21:10:08.154Z,4.38
2023-10-15T21:12:55.432Z,4.35
2023-10-15T21:15:42.634Z,4.33
2023-10-15T21:18:30.064Z,4.34
2023-10-15T21:21:17.316Z,4.30
2023-10-15T21:24:06.157Z,4.25
2023-10-15T21:26:53.422Z,4.21
2023-10-15T21:29:40.575Z,4.17
2023-10-15T21:32:27.857Z,4.15
2023-10-15T21:35:15.235Z,4.15
2023-10-15T21:38:02.711Z,4.14
2023-10-15T21:40:49.870Z,4.14
2023-10-15T21:43:37.159Z,4.13
2023-10-15T21:46:24.363Z,4.14
2023-10-15T21:49:12.543Z,4.14
2023-10-15T21:51:59.885Z,4.13
2023-10-15T21:54:47.341Z,4.14
2023-10-15T21:57:34.578Z,4.15
2023-10-15T22:00:36.550Z,4.16
2023-10-15T22:03:23.881Z,4.17
2023-10-15T22:06:11.901Z,4.16
2023-10-15T22:08:59.261Z,4.16
2023-10-15T22:11:46.588Z,4.16
2023-10-15T22:14:33.759Z,4.14
2023-10-15T22:17:21.324Z,4.11
2023-10-15T22:20:20.042Z,4.09
2023-10-15T22:23:07.289Z,4.08
2023-10-15T22:25:54.709Z,4.05
2023-10-15T22:28:42.467Z,4.04
2023-10-15T22:31:30.018Z,4.06
2023-10-15T22:34:17.966Z,4.06
2023-10-15T22:37:06.606Z,4.05
2023-10-15T22:39:53.772Z,4.04
2023-10-15T22:42:40.988Z,4.03
2023-10-15T22:45:29.570Z,4.02
2023-10-15T22:48:16.900Z,4.02
2023-10-15T22:51:04.104Z,4.03
2023-10-15T22:53:51.279Z,4.05
2023-10-15T22:56:38.430Z,4.08
2023-10-15T22:59:25.664Z,4.10
2023-10-15T23:02:13.105Z,4.12
2023-10-15T23:05:01.270Z,4.15
2023-10-15T23:07:49.397Z,4.15
2023-10-15T23:10:38.301Z,4.17
2023-10-15T23:13:26.269Z,4.22
2023-10-15T23:16:15.561Z,4.26
2023-10-15T23:19:04.770Z,4.31
2023-10-15T23:21:58.453Z,4.38
2023-10-15T23:24:45.689Z,4.39
2023-10-15T23:27:32.947Z,4.39
2023-10-15T23:30:22.382Z,4.41
2023-10-15T23:33:10.210Z,4.44
2023-10-15T23:36:06.048Z,4.49
2023-10-15T23:38:53.598Z,4.54
2023-10-15T23:41:43.457Z,4.57
2023-10-15T23:44:30.624Z,4.63
2023-10-15T23:47:17.912Z,4.68
2023-10-15T23:50:15.451Z,4.71
2023-10-15T23:53:04.498Z,4.73
2023-10-15T23:55:51.652Z,4.75
2023-10-15T23:58:41.745Z,4.77
